createdAt,value
2022-11-05T00:00:36.505Z,42.10
2022-11-05T00:03:22.057Z,34.85
2022-11-05T00:06:09.683Z,48.33
2022-11-05T00:08:55.219Z,45.03
2022-11-05T00:11:42.151Z,45.35
2022-11-05T00:14:27.989Z,68.97
2022-11-05T00:16:54.864Z,35.42
2022-11-05T00:19:21.719Z,48.63
2022-11-05T00:22:07.127Z,45.70
2022-11-05T00:24:52.704Z,147.65
2022-11-05T00:27:19.576Z,97.63
2022-11-05T00:29:46.450Z,153.18
2022-11-05T00:32:13.374Z,325.00
2022-11-05T00:34:40.220Z,147.00
2022-11-05T00:37:07.164Z,46.20
2022-11-05T00:39:34.029Z,143.95
2022-11-05T00:42:19.267Z,112.68
2022-11-05T00:45:04.230Z,49.33
2022-11-05T00:47:51.150Z,122.18
2022-11-05T00:50:20.164Z,66.63
2022-11-05T00:52:58.920Z,98.32
2022-11-05T00:55:29.403Z,110.20
2022-11-05T00:57:57.567Z,125.95
2022-11-05T01:00:26.612Z,44.78
2022-11-05T01:02:53.784Z,35.70
2022-11-05T01:05:20.734Z,46.95
2022-11-05T01:07:47.616Z,43.17
2022-11-05T01:10:14.513Z,57.47
2022-11-05T01:12:41.357Z,42.22
2022-11-05T01:15:08.753Z,40.42
2022-11-05T01:17:35.808Z,46.00
2022-11-05T01:20:02.819Z,45.33
2022-11-05T01:22:29.791Z,45.70
2022-11-05T01:24:56.668Z,47.08
2022-11-05T01:27:23.616Z,90.20
2022-11-05T01:29:50.739Z,85.05
2022-11-05T01:32:17.597Z,77.50
2022-11-05T01:34:44.485Z,134.02
2022-11-05T01:37:11.373Z,49.03
2022-11-05T01:39:38.291Z,199.35
2022-11-05T01:42:15.074Z,124.60
2022-11-05T01:44:54.387Z,57.83
2022-11-05T01:47:34.165Z,183.52
2022-11-05T01:50:23.660Z,361.92
2022-11-05T01:52:54.447Z,147.65
2022-11-05T01:55:26.710Z,213.43
2022-11-05T01:57:58.921Z,135.95
2022-11-05T02:00:26.201Z,298.65
2022-11-05T02:02:53.366Z,231.85
2022-11-05T02:05:20.634Z,73.07
2022-11-05T02:07:48.443Z,98.55
2022-11-05T02:10:18.072Z,189.93
2022-11-05T02:12:47.433Z,248.00
2022-11-05T02:15:18.275Z,109.13
2022-11-05T02:17:48.016Z,328.45
2022-11-05T02:20:36.300Z,238.60
2022-11-05T02:23:34.019Z,307.40
2022-11-05T02:26:13.851Z,333.85
2022-11-05T02:28:58.980Z,137.40
2022-11-05T02:31:44.528Z,678.35
2022-11-05T02:34:14.198Z,374.55
2022-11-05T02:37:10.531Z,337.75
2022-11-05T02:39:50.873Z,436.85
2022-11-05T02:42:33.683Z,654.20
2022-11-05T02:45:10.966Z,279.42
2022-11-05T02:48:11.692Z,248.40
2022-11-05T02:50:57.366Z,367.25
2022-11-05T02:53:38.186Z,364.52
2022-11-05T02:56:17.127Z,369.92
2022-11-05T02:58:44.115Z,352.50
2022-11-05T03:01:14.006Z,233.18
2022-11-05T03:03:43.691Z,374.48
2022-11-05T03:06:44.203Z,236.63
2022-11-05T03:09:39.831Z,248.85
2022-11-05T03:12:06.744Z,485.55
2022-11-05T03:14:51.810Z,366.63
2022-11-05T03:17:24.312Z,265.88
2022-11-05T03:20:05.621Z,385.52
2022-11-05T03:22:41.189Z,232.60
2022-11-05T03:25:17.830Z,380.45
2022-11-05T03:30:16.221Z,55.10
2022-11-05T03:32:49.262Z,45.20
2022-11-05T03:35:23.021Z,134.18
2022-11-05T03:37:55.011Z,45.03
2022-11-05T03:40:24.158Z,126.57
2022-11-05T03:42:54.988Z,45.42
2022-11-05T03:45:44.666Z,158.63
2022-11-05T03:48:14.604Z,67.85
2022-11-05T03:51:02.718Z,71.00
2022-11-05T03:53:41.192Z,193.25
2022-11-05T03:56:18.384Z,62.47
2022-11-05T03:58:46.197Z,157.43
2022-11-05T04:01:13.349Z,178.05
2022-11-05T04:03:40.358Z,136.95
2022-11-05T04:06:28.577Z,67.50
2022-11-05T04:09:14.217Z,222.68
2022-11-05T04:11:59.800Z,51.22
2022-11-05T04:14:26.704Z,74.07
2022-11-05T04:17:11.825Z,106.13
2022-11-05T04:19:59.432Z,65.90
2022-11-05T04:22:46.906Z,46.08
2022-11-05T04:25:15.019Z,66.38
2022-11-05T04:27:41.944Z,81.22
2022-11-05T04:30:18.746Z,157.95
2022-11-05T04:33:11.364Z,94.70
2022-11-05T04:35:49.390Z,60.97
2022-11-05T04:38:20.225Z,50.10
2022-11-05T04:40:48.376Z,49.45
2022-11-05T04:43:19.475Z,48.22
2022-11-05T04:45:46.592Z,62.95
2022-11-05T04:48:13.676Z,61.05
2022-11-05T04:50:40.582Z,50.05
2022-11-05T04:53:07.534Z,56.53
2022-11-05T04:55:34.559Z,60.90
2022-11-05T04:58:01.456Z,62.38
2022-11-05T05:00:28.519Z,77.75
2022-11-05T05:02:55.439Z,113.32
2022-11-05T05:05:23.230Z,57.33
2022-11-05T05:07:50.160Z,63.88
2022-11-05T05:10:17.224Z,93.50
2022-11-05T05:12:44.194Z,72.57
2022-11-05T05:15:11.129Z,57.78
2022-11-05T05:17:37.990Z,51.10
2022-11-05T05:20:23.868Z,52.97
2022-11-05T05:22:54.755Z,48.03
2022-11-05T05:25:22.664Z,45.75
2022-11-05T05:27:49.532Z,41.53
2022-11-05T05:30:16.486Z,50.47
2022-11-05T05:32:52.771Z,48.35
2022-11-05T05:35:19.693Z,43.80
2022-11-05T05:37:46.577Z,47.00
2022-11-05T05:40:13.417Z,42.92
2022-11-05T05:42:43.136Z,46.15
2022-11-05T05:45:11.592Z,37.83
2022-11-05T05:47:38.811Z,40.97
2022-11-05T05:50:06.144Z,38.28
2022-11-05T05:52:33.117Z,43.58
2022-11-05T05:55:00.014Z,38.42
2022-11-05T05:57:26.868Z,37.05
2022-11-05T05:59:53.735Z,40.15
2022-11-05T06:02:20.788Z,41.15
2022-11-05T06:04:47.796Z,37.10
2022-11-05T06:07:14.730Z,38.22
2022-11-05T06:09:41.589Z,37.85
2022-11-05T06:12:08.585Z,44.28
2022-11-05T06:14:35.559Z,40.05
2022-11-05T06:17:02.520Z,37.47
2022-11-05T06:19:29.517Z,37.42
2022-11-05T06:21:56.397Z,37.03
2022-11-05T06:24:23.419Z,41.13
2022-11-05T06:26:50.287Z,41.10
2022-11-05T06:29:17.235Z,43.08
2022-11-05T06:31:44.170Z,41.97
2022-11-05T06:34:11.072Z,38.85
2022-11-05T06:36:38.137Z,41.88
2022-11-05T06:39:05.093Z,38.03
2022-11-05T06:41:35.473Z,46.63
2022-11-05T06:44:12.648Z,35.65
2022-11-05T06:46:41.321Z,36.28
2022-11-05T06:49:10.156Z,42.88
2022-11-05T06:51:37.032Z,34.95
2022-11-05T06:54:04.363Z,44.10
2022-11-05T06:56:31.195Z,45.70
2022-11-05T06:58:58.199Z,43.10
2022-11-05T07:01:25.249Z,41.42
2022-11-05T07:03:52.228Z,41.90
2022-11-05T07:06:19.078Z,54.50
2022-11-05T07:08:46.026Z,44.30
2022-11-05T07:11:12.861Z,37.47
2022-11-05T07:13:39.688Z,34.47
2022-11-05T07:16:06.755Z,38.88
2022-11-05T07:18:33.618Z,38.47
2022-11-05T07:21:00.931Z,40.20
2022-11-05T07:23:27.944Z,38.47
2022-11-05T07:25:54.915Z,43.30
2022-11-05T07:28:21.823Z,53.30
2022-11-05T07:30:48.759Z,45.05
2022-11-05T07:33:15.628Z,41.97
2022-11-05T07:35:42.556Z,43.40
2022-11-05T07:38:09.687Z,44.88
2022-11-05T07:40:36.569Z,38.25
2022-11-05T07:43:03.483Z,45.97
2022-11-05T07:45:31.288Z,41.10
2022-11-05T07:48:00.708Z,42.55
2022-11-05T07:50:33.468Z,39.45
2022-11-05T07:53:02.402Z,40.78
2022-11-05T07:55:29.899Z,47.85
2022-11-05T07:57:56.874Z,37.92
2022-11-05T08:00:25.376Z,43.85
2022-11-05T08:03:07.894Z,40.95
2022-11-05T08:05:37.353Z,35.85
2022-11-05T08:08:05.642Z,40.90
2022-11-05T08:10:34.180Z,36.53
2022-11-05T08:13:01.290Z,31.10
2022-11-05T08:15:28.774Z,36.60
2022-11-05T08:18:04.332Z,37.28
2022-11-05T08:20:31.519Z,32.47
2022-11-05T08:22:58.508Z,34.17
2022-11-05T08:25:26.227Z,37.53
2022-11-05T08:28:04.332Z,25.58
2022-11-05T08:30:32.243Z,38.20
2022-11-05T08:33:01.605Z,38.42
2022-11-05T08:35:29.422Z,29.40
2022-11-05T08:38:00.792Z,31.00
2022-11-05T08:40:27.886Z,27.30
2022-11-05T08:42:57.828Z,30.08
2022-11-05T08:45:26.131Z,30.67
2022-11-05T08:48:04.250Z,28.10
2022-11-05T08:50:31.693Z,30.38
2022-11-05T08:52:59.127Z,32.60
2022-11-05T08:55:26.817Z,30.95
2022-11-05T08:58:01.401Z,34.38
2022-11-05T09:00:29.985Z,27.85
2022-11-05T09:03:00.861Z,29.98
2022-11-05T09:05:29.095Z,22.67
2022-11-05T09:08:00.874Z,29.38
2022-11-05T09:10:28.606Z,24.70
2022-11-05T09:12:55.992Z,28.52
2022-11-05T09:15:24.516Z,30.17
2022-11-05T09:17:51.587Z,28.17
2022-11-05T09:20:18.876Z,31.67
2022-11-05T09:22:46.807Z,39.40
2022-11-05T09:25:15.905Z,26.38
2022-11-05T09:27:43.764Z,29.45
2022-11-05T09:30:11.699Z,27.80
2022-11-05T09:32:38.803Z,29.17
2022-11-05T09:35:06.378Z,41.10
2022-11-05T09:37:37.192Z,29.90
2022-11-05T09:40:04.753Z,36.17
2022-11-05T09:42:47.094Z,33.05
2022-11-05T10:17:24.549Z,30.17
2022-11-05T10:20:00.606Z,24.63
2022-11-05T10:22:27.649Z,28.40
2022-11-05T10:24:55.257Z,25.92
2022-11-05T10:27:33.531Z,22.50
2022-11-05T10:30:00.824Z,23.98
2022-11-05T10:32:30.720Z,35.72
2022-11-05T10:35:01.280Z,20.02
2022-11-05T10:37:29.842Z,34.10
2022-11-05T10:39:56.838Z,25.42
2022-11-05T10:42:26.535Z,28.40
2022-11-05T10:45:05.093Z,29.15
2022-11-05T10:47:50.832Z,27.98
2022-11-05T10:50:22.258Z,25.92
2022-11-05T10:52:52.110Z,32.53
2022-11-05T10:55:26.293Z,27.13
2022-11-05T10:57:53.718Z,30.88
2022-11-05T11:00:22.983Z,29.40
2022-11-05T11:02:57.343Z,28.63
2022-11-05T11:05:36.912Z,30.77
2022-11-05T11:08:23.544Z,24.48
2022-11-05T11:10:59.343Z,25.25
2022-11-05T11:13:59.501Z,27.10
2022-11-05T11:16:29.391Z,29.88
2022-11-05T11:19:01.104Z,29.35
2022-11-05T11:21:32.160Z,28.42
2022-11-05T11:24:06.563Z,24.17
2022-11-05T11:26:37.412Z,34.60
2022-11-05T11:29:23.305Z,28.25
2022-11-05T11:31:58.065Z,29.35
2022-11-05T11:34:34.708Z,25.42
2022-11-05T11:37:19.521Z,31.25
2022-11-05T11:40:01.851Z,24.95
2022-11-05T11:42:36.007Z,37.05
2022-11-05T11:45:15.502Z,36.58
2022-11-05T11:47:47.357Z,28.00
2022-11-05T11:50:35.710Z,35.90
2022-11-05T11:53:20.915Z,26.00
2022-11-05T11:56:05.244Z,26.35
2022-11-05T11:58:40.870Z,25.58
2022-11-05T12:01:38.065Z,33.67
2022-11-05T12:06:50.629Z,27.60
2022-11-05T12:09:55.074Z,31.67
2022-11-05T12:12:46.169Z,28.55
2022-11-05T12:15:39.534Z,31.20
2022-11-05T12:18:18.408Z,32.03
2022-11-05T12:21:03.619Z,22.05
2022-11-05T12:23:44.616Z,31.45
2022-11-05T12:26:52.416Z,36.42
2022-11-05T12:32:37.340Z,28.77
2022-11-05T12:35:25.458Z,26.63
2022-11-05T12:37:55.192Z,25.90
2022-11-05T12:40:34.052Z,23.20
2022-11-05T12:43:22.363Z,22.52
2022-11-05T12:46:06.282Z,26.88
2022-11-05T12:48:44.355Z,23.50
2022-11-05T12:51:40.195Z,29.13
2022-11-05T12:54:25.432Z,27.50
2022-11-05T12:56:59.444Z,29.15
2022-11-05T12:59:41.769Z,23.75
2022-11-05T13:02:40.979Z,31.15
2022-11-05T13:05:40.986Z,28.40
2022-11-05T13:08:44.303Z,26.85
2022-11-05T13:11:23.953Z,25.35
2022-11-05T13:14:11.349Z,24.45
2022-11-05T13:16:43.441Z,26.10
2022-11-05T13:19:27.521Z,33.53
2022-11-05T13:22:00.393Z,21.45
2022-11-05T13:24:42.238Z,21.40
2022-11-05T13:27:53.001Z,22.08
2022-11-05T13:30:26.883Z,21.23
2022-11-05T13:33:10.786Z,32.97
2022-11-05T13:35:45.227Z,21.92
2022-11-05T13:38:42.643Z,29.17
2022-11-05T13:46:31.158Z,17.80
2022-11-05T13:49:34.277Z,19.65
2022-11-05T13:52:19.384Z,28.90
2022-11-05T13:55:26.260Z,26.55
2022-11-05T13:58:16.292Z,17.30
2022-11-05T14:01:05.706Z,24.27
2022-11-05T14:03:33.148Z,25.13
2022-11-05T14:06:05.530Z,26.52
2022-11-05T14:08:44.261Z,29.48
2022-11-05T14:11:42.472Z,25.05
2022-11-05T14:14:18.766Z,29.95
2022-11-05T14:16:55.233Z,41.78
2022-11-05T14:21:57.978Z,21.55
2022-11-05T14:24:44.377Z,33.15
2022-11-05T14:27:13.885Z,23.77
2022-11-05T14:29:45.898Z,23.33
2022-11-05T14:32:21.133Z,30.17
2022-11-05T14:35:02.271Z,30.33
2022-11-05T14:37:40.206Z,31.67
2022-11-05T14:40:22.011Z,30.17
2022-11-05T14:42:58.488Z,34.83
2022-11-05T14:45:35.048Z,33.33
2022-11-05T14:48:22.008Z,29.30
2022-11-05T14:50:49.539Z,37.53
2022-11-05T14:53:39.592Z,33.80
2022-11-05T14:56:13.711Z,29.50
2022-11-05T14:58:42.943Z,35.90
2022-11-05T15:01:32.588Z,33.90
2022-11-05T15:04:17.029Z,35.92
2022-11-05T15:07:02.282Z,45.22
2022-11-05T15:10:10.305Z,45.05
2022-11-05T15:12:43.703Z,59.55
2022-11-05T15:15:21.887Z,27.42
2022-11-05T15:17:58.413Z,27.40
2022-11-05T15:20:44.112Z,24.73
2022-11-05T15:23:20.784Z,23.23
2022-11-05T15:26:06.069Z,28.10
2022-11-05T15:28:43.955Z,24.58
2022-11-05T15:31:13.522Z,27.67
2022-11-05T15:33:49.355Z,26.85
2022-11-05T15:36:31.384Z,18.73
2022-11-05T15:41:46.964Z,25.30
2022-11-05T15:44:32.085Z,24.77
2022-11-05T15:47:21.774Z,29.20
2022-11-05T15:50:00.043Z,27.95
2022-11-05T15:52:36.668Z,28.17
2022-11-05T15:55:09.894Z,27.40
2022-11-05T15:57:40.348Z,27.25
2022-11-05T16:00:15.977Z,26.30
2022-11-05T16:02:43.641Z,28.08
2022-11-05T16:05:14.237Z,29.08
2022-11-05T16:07:45.462Z,27.60
2022-11-05T16:10:26.622Z,27.88
2022-11-05T16:12:53.694Z,29.00
2022-11-05T16:15:26.203Z,24.52
2022-11-05T16:17:58.917Z,27.60
2022-11-05T16:20:28.247Z,24.48
2022-11-05T16:22:58.421Z,26.65
2022-11-05T16:25:31.198Z,24.85
2022-11-05T16:27:59.981Z,23.35
2022-11-05T16:30:27.253Z,31.30
2022-11-05T16:32:54.968Z,25.55
2022-11-05T16:35:24.283Z,28.60
2022-11-05T16:37:52.674Z,23.35
2022-11-05T16:40:25.356Z,26.95
2022-11-05T16:42:54.054Z,27.25
2022-11-05T16:45:24.781Z,27.10
2022-11-05T16:47:52.132Z,29.70
2022-11-05T16:50:30.724Z,24.50
2022-11-05T16:52:57.604Z,26.27
2022-11-05T16:55:24.419Z,28.33
2022-11-05T16:57:53.600Z,24.77
2022-11-05T17:00:21.963Z,30.92
2022-11-05T17:02:49.489Z,26.42
2022-11-05T17:05:25.721Z,27.38
2022-11-05T17:07:53.360Z,23.33
2022-11-05T17:10:21.327Z,27.15
2022-11-05T17:12:49.003Z,27.98
2022-11-05T17:15:20.463Z,24.10
2022-11-05T17:17:48.425Z,32.20
2022-11-05T17:20:27.955Z,26.27
2022-11-05T17:22:56.319Z,26.42
2022-11-05T17:25:24.184Z,26.15
2022-11-05T17:27:51.179Z,24.67
2022-11-05T17:30:18.681Z,27.40
2022-11-05T17:32:45.744Z,27.02
2022-11-05T17:35:12.958Z,30.27
2022-11-05T17:37:40.129Z,30.40
2022-11-05T17:40:08.554Z,39.03
2022-11-05T17:42:35.404Z,37.72
2022-11-05T17:45:02.377Z,40.80
2022-11-05T17:47:29.970Z,47.17
2022-11-05T17:49:56.996Z,93.97
2022-11-05T17:52:24.044Z,96.03
2022-11-05T17:54:50.978Z,49.10
2022-11-05T17:57:18.067Z,35.30
2022-11-05T17:59:45.067Z,28.90
2022-11-05T18:02:12.384Z,28.83
2022-11-05T18:04:39.958Z,31.58
2022-11-05T18:07:07.452Z,31.73
2022-11-05T18:09:34.408Z,27.70
2022-11-05T18:12:01.267Z,30.08
2022-11-05T18:14:28.255Z,34.33
2022-11-05T18:17:00.335Z,32.72
2022-11-05T18:19:28.011Z,34.92
2022-11-05T18:21:55.904Z,36.78
2022-11-05T18:24:23.245Z,40.95
2022-11-05T18:26:50.518Z,36.65
2022-11-05T18:29:17.509Z,34.53
2022-11-05T18:31:44.435Z,36.83
2022-11-05T18:34:11.459Z,33.67
2022-11-05T18:36:38.399Z,36.83
2022-11-05T18:39:06.937Z,32.28
2022-11-05T18:41:33.820Z,32.53
2022-11-05T18:44:01.983Z,36.03
2022-11-05T18:46:56.516Z,33.90
2022-11-05T18:49:17.322Z,30.13
2022-11-05T18:51:44.512Z,34.30
2022-11-05T18:54:11.747Z,34.28
2022-11-05T18:56:44.816Z,36.38
2022-11-05T18:59:35.217Z,29.15
2022-11-05T19:01:59.971Z,35.72
2022-11-05T19:04:27.247Z,29.20
2022-11-05T19:06:54.479Z,28.35
2022-11-05T19:09:21.493Z,25.63
2022-11-05T19:11:48.390Z,28.00
2022-11-05T19:14:15.282Z,32.85
2022-11-05T19:16:42.489Z,29.17
2022-11-05T19:19:10.050Z,28.33
2022-11-05T19:21:36.963Z,29.50
2022-11-05T19:24:04.479Z,30.42
2022-11-05T19:26:31.709Z,52.63
2022-11-05T19:29:01.892Z,112.38
2022-11-05T19:31:29.776Z,51.70
2022-11-05T19:33:56.722Z,49.13
2022-11-05T19:36:25.451Z,39.38
2022-11-05T19:38:57.812Z,40.17
2022-11-05T19:41:25.875Z,50.03
2022-11-05T19:43:58.119Z,39.75
2022-11-05T19:46:25.868Z,151.18
2022-11-05T19:48:53.400Z,128.55
2022-11-05T19:51:23.659Z,125.57
2022-11-05T19:53:52.922Z,40.55
2022-11-05T19:56:25.505Z,37.80
2022-11-05T19:58:53.798Z,35.55
2022-11-05T20:01:22.628Z,37.78
2022-11-05T20:03:50.396Z,35.53
2022-11-05T20:06:20.732Z,37.08
2022-11-05T20:09:15.324Z,38.13
2022-11-05T20:11:39.991Z,40.83
2022-11-05T20:14:09.385Z,43.00
2022-11-05T20:16:38.377Z,50.75
2022-11-05T20:19:07.725Z,47.30
2022-11-05T20:21:35.333Z,46.85
2022-11-05T20:24:02.693Z,41.10
2022-11-05T20:26:30.715Z,47.45
2022-11-05T20:28:57.739Z,41.53
2022-11-05T20:31:24.867Z,39.70
2022-11-05T20:33:52.494Z,38.00
2022-11-05T20:36:22.437Z,34.10
2022-11-05T20:38:55.355Z,37.03
2022-11-05T20:41:22.727Z,38.70
2022-11-05T20:43:49.838Z,28.85
2022-11-05T20:46:18.719Z,31.67
2022-11-05T20:48:45.958Z,28.35
2022-11-05T20:51:15.540Z,28.42
2022-11-05T20:53:43.526Z,33.38
2022-11-05T20:56:23.965Z,34.75
2022-11-05T20:58:51.904Z,30.63
2022-11-05T21:01:19.830Z,31.23
2022-11-05T21:03:47.995Z,35.20
2022-11-05T21:06:15.562Z,32.08
2022-11-05T21:08:43.363Z,35.08
2022-11-05T21:11:10.708Z,38.55
2022-11-05T21:13:38.422Z,33.40
2022-11-05T21:16:07.483Z,31.58
2022-11-05T21:18:36.253Z,35.47
2022-11-05T21:21:08.109Z,32.47
2022-11-05T21:23:35.098Z,23.20
2022-11-05T21:26:10.992Z,24.42
2022-11-05T21:28:39.666Z,26.25
2022-11-05T21:31:07.680Z,22.90
2022-11-05T21:33:35.458Z,25.98
2022-11-05T21:36:11.055Z,30.63
2022-11-05T21:38:38.691Z,30.07
2022-11-05T21:41:06.507Z,22.77
2022-11-05T21:43:33.916Z,27.63
2022-11-05T21:46:02.365Z,30.65
2022-11-05T21:48:29.641Z,28.73
2022-11-05T21:51:15.009Z,28.88
2022-11-05T21:54:00.620Z,29.85
2022-11-05T21:56:48.368Z,30.08
2022-11-05T21:59:36.093Z,30.77
2022-11-05T22:02:03.606Z,36.42
2022-11-05T22:04:33.552Z,28.23
2022-11-05T22:07:00.817Z,29.25
2022-11-05T22:09:28.384Z,31.95
2022-11-05T22:11:55.636Z,34.78
2022-11-05T22:14:23.437Z,32.60
2022-11-05T22:16:50.567Z,31.13
2022-11-05T22:19:17.769Z,37.55
2022-11-05T22:21:44.679Z,36.83
2022-11-05T22:24:11.655Z,50.60
2022-11-05T22:26:39.389Z,36.60
2022-11-05T22:29:06.832Z,51.95
2022-11-05T22:31:36.479Z,60.03
2022-11-05T22:34:05.282Z,90.30
2022-11-05T22:36:33.897Z,112.57
2022-11-05T22:39:01.680Z,43.20
2022-11-05T22:41:29.468Z,62.00
2022-11-05T22:43:56.317Z,140.18
2022-11-05T22:46:24.851Z,70.93
2022-11-05T22:48:52.510Z,54.30
2022-11-05T22:51:28.206Z,48.28
2022-11-05T22:53:55.305Z,56.10
2022-11-05T22:56:24.717Z,52.47
2022-11-05T22:58:52.408Z,53.03
2022-11-05T23:01:20.808Z,49.58
2022-11-05T23:03:49.829Z,54.17
2022-11-05T23:06:57.183Z,62.22
2022-11-05T23:10:02.192Z,56.27
2022-11-05T23:12:32.754Z,59.20
2022-11-05T23:15:01.587Z,57.33
2022-11-05T23:17:47.893Z,57.05
2022-11-05T23:20:36.567Z,57.43
2022-11-05T23:23:22.192Z,56.88
2022-11-05T23:25:49.131Z,52.17
2022-11-05T23:28:21.399Z,48.95
2022-11-05T23:31:06.628Z,51.08
2022-11-05T23:33:34.574Z,45.83
2022-11-05T23:36:20.133Z,39.40
2022-11-05T23:38:47.051Z,39.70
2022-11-05T23:41:32.548Z,39.85
2022-11-05T23:44:17.594Z,41.53
2022-11-05T23:47:03.370Z,36.67
2022-11-05T23:49:30.273Z,42.97
2022-11-05T23:51:57.197Z,42.85
2022-11-05T23:54:24.119Z,39.72
2022-11-05T23:56:51.064Z,43.38
2022-11-05T23:59:17.907Z,42.35
